createdAt,value
2018-07-06T00:04:34.260Z,21.1
2018-07-06T00:10:29.242Z,25.11
2018-07-06T00:16:24.230Z,21.41
2018-07-06T00:22:19.235Z,21.07
2018-07-06T00:28:14.277Z,25.9
2018-07-06T00:34:09.301Z,23.89
2018-07-06T00:40:04.357Z,23.81
2018-07-06T00:45:59.280Z,20.68
2018-07-06T00:51:54.272Z,21.35
2018-07-06T00:57:49.307Z,20.42
2018-07-06T01:03:44.300Z,20.55
2018-07-06T01:09:39.280Z,20.76
2018-07-06T01:15:34.329Z,18.37
2018-07-06T01:21:29.295Z,21.11
2018-07-06T01:27:24.298Z,19.61
2018-07-06T01:33:19.288Z,18.13
2018-07-06T01:39:14.299Z,18.07
2018-07-06T01:45:09.277Z,18.93
2018-07-06T01:51:04.297Z,19.59
2018-07-06T01:56:59.361Z,18.94
2018-07-06T02:02:54.347Z,23.81
2018-07-06T02:08:49.322Z,20.08
2018-07-06T02:14:44.354Z,26.17
2018-07-06T02:20:39.401Z,23.91
2018-07-06T02:26:34.413Z,22.06
2018-07-06T02:32:29.322Z,18.98
2018-07-06T02:38:24.355Z,21.32
2018-07-06T02:44:19.360Z,23.08
2018-07-06T02:50:14.329Z,19.39
2018-07-06T02:56:09.359Z,21.7
2018-07-06T03:02:04.334Z,23.94
2018-07-06T03:07:59.368Z,20.54
2018-07-06T03:13:54.396Z,21.97
2018-07-06T03:19:49.361Z,27.81
2018-07-06T03:25:44.393Z,19.03
2018-07-06T03:31:39.364Z,23.56
2018-07-06T03:37:34.400Z,22.89
2018-07-06T03:43:29.400Z,22.84
2018-07-06T03:49:24.496Z,22.25
2018-07-06T03:55:19.415Z,22.2
2018-07-06T04:01:14.426Z,21.15
2018-07-06T04:07:09.390Z,26.07
2018-07-06T04:13:04.442Z,20.64
2018-07-06T04:18:59.429Z,21.95
2018-07-06T04:24:54.431Z,22.04
2018-07-06T04:30:49.404Z,30.04
2018-07-06T04:36:44.448Z,20.26
2018-07-06T04:42:39.468Z,24.35
2018-07-06T04:48:34.399Z,23.81
2018-07-06T04:54:29.488Z,23.97
2018-07-06T05:00:24.440Z,27.24
2018-07-06T05:06:19.459Z,21.08
2018-07-06T05:12:14.477Z,22.36
2018-07-06T05:18:09.449Z,20.6
2018-07-06T05:24:04.474Z,21.9
2018-07-06T05:29:59.455Z,20.12
2018-07-06T05:35:54.444Z,22.73
2018-07-06T05:41:49.450Z,21.72
2018-07-06T05:47:44.462Z,21.73
2018-07-06T05:53:39.499Z,19.49
2018-07-06T05:59:34.464Z,16.87
2018-07-06T06:05:29.468Z,17.94
2018-07-06T06:11:24.537Z,17.67
2018-07-06T06:17:19.497Z,20.47
2018-07-06T06:23:14.545Z,16.66
2018-07-06T06:29:09.516Z,14.66
2018-07-06T06:35:04.539Z,15.63
2018-07-06T06:40:59.539Z,14.43
2018-07-06T06:46:54.585Z,15.83
2018-07-06T06:52:49.539Z,15.38
2018-07-06T06:58:44.496Z,16.06
2018-07-06T07:04:39.545Z,16.77
2018-07-06T07:10:34.810Z,16.53
2018-07-06T07:16:29.657Z,22.56
2018-07-06T07:22:24.563Z,19.14
2018-07-06T07:28:19.547Z,22.03
2018-07-06T07:34:14.596Z,23.12
2018-07-06T07:40:10.366Z,20.35
2018-07-06T07:46:04.934Z,21.09
2018-07-06T07:51:59.534Z,19.67
2018-07-06T07:57:54.564Z,24.62
2018-07-06T08:03:49.639Z,25.76
2018-07-06T08:09:44.569Z,24.21
2018-07-06T08:15:39.580Z,25.98
2018-07-06T08:21:34.657Z,18.14
2018-07-06T08:27:29.579Z,20.94
2018-07-06T08:33:24.589Z,22.6
2018-07-06T08:39:19.612Z,21.97
2018-07-06T08:45:14.655Z,19.31
2018-07-06T08:51:09.621Z,19.04
2018-07-06T08:57:04.680Z,17.32
2018-07-06T09:02:59.620Z,19.98
2018-07-06T09:08:54.682Z,12.74
2018-07-06T09:14:49.650Z,17.94
2018-07-06T09:20:44.725Z,13.13
2018-07-06T09:26:39.643Z,11.87
2018-07-06T09:32:34.658Z,10.69
2018-07-06T09:38:29.679Z,9.2
2018-07-06T09:44:24.640Z,9.05
2018-07-06T09:50:19.678Z,9.16
2018-07-06T09:56:14.643Z,7.64
2018-07-06T10:02:09.743Z,8.15
2018-07-06T10:08:04.692Z,9.67
2018-07-06T10:13:59.665Z,8.45
2018-07-06T10:19:54.737Z,6.21
2018-07-06T10:25:49.715Z,7.75
2018-07-06T10:31:44.728Z,9.4
2018-07-06T10:37:39.744Z,9.32
2018-07-06T10:43:34.773Z,6.99
2018-07-06T10:49:29.732Z,12.14
2018-07-06T10:55:24.699Z,4.28
2018-07-06T11:01:19.746Z,8.79
2018-07-06T11:07:14.716Z,4.59
2018-07-06T11:13:09.721Z,6.01
2018-07-06T11:19:04.785Z,3.82
2018-07-06T11:24:59.778Z,3.16
2018-07-06T11:30:54.779Z,6.03
2018-07-06T11:36:49.764Z,4.41
2018-07-06T11:42:44.730Z,4.68
2018-07-06T11:48:39.730Z,4.21
2018-07-06T11:54:34.779Z,4.69
2018-07-06T12:00:29.826Z,5.82
2018-07-06T12:06:24.789Z,7.25
2018-07-06T12:12:19.769Z,5.9
2018-07-06T12:18:14.748Z,3.77
2018-07-06T12:24:09.810Z,1.53
2018-07-06T12:30:05.576Z,1.67
2018-07-06T12:35:59.781Z,2.84
2018-07-06T12:41:54.781Z,12.51
2018-07-06T12:47:49.777Z,6.48
2018-07-06T12:53:44.848Z,3.08
2018-07-06T12:59:39.871Z,1.99
2018-07-06T13:05:34.807Z,2.42
2018-07-06T13:11:29.807Z,2.24
2018-07-06T13:17:24.771Z,1.76
2018-07-06T13:23:19.780Z,3.79
2018-07-06T13:29:14.778Z,4.03
2018-07-06T13:35:09.853Z,6.54
2018-07-06T13:41:04.806Z,2.82
2018-07-06T13:46:59.815Z,2.6
2018-07-06T13:52:54.826Z,3.77
2018-07-06T13:58:49.793Z,3.07
2018-07-06T14:04:44.816Z,2.31
2018-07-06T14:10:39.831Z,3.1
2018-07-06T14:16:34.907Z,2.43
2018-07-06T14:22:29.842Z,2.54
2018-07-06T14:28:24.823Z,3.96
2018-07-06T14:34:19.837Z,4.59
2018-07-06T14:40:14.868Z,3.75
2018-07-06T14:46:09.880Z,5.28
2018-07-06T14:52:04.838Z,3.12
2018-07-06T14:57:59.846Z,4.24
2018-07-06T15:03:54.845Z,3.58
2018-07-06T15:09:49.864Z,4
2018-07-06T15:15:44.885Z,3.01
2018-07-06T15:21:40.028Z,2.8
2018-07-06T15:27:34.880Z,3.23
2018-07-06T15:33:29.895Z,5.55
2018-07-06T15:39:24.881Z,6.72
2018-07-06T15:45:19.880Z,4.65
2018-07-06T15:51:14.891Z,5.29
2018-07-06T15:57:09.914Z,7.15
2018-07-06T16:03:04.917Z,6.03
2018-07-06T16:08:59.986Z,4.28
2018-07-06T16:14:54.908Z,6.94
2018-07-06T16:20:50.029Z,3.73
2018-07-06T16:26:44.920Z,5.11
2018-07-06T16:32:39.933Z,8.8
2018-07-06T16:38:34.949Z,5.47
2018-07-06T16:44:29.976Z,6.4
2018-07-06T16:50:24.945Z,4.57
2018-07-06T16:56:19.950Z,5.5
2018-07-06T17:02:14.950Z,6.7
2018-07-06T17:08:09.949Z,6.24
2018-07-06T17:14:04.963Z,5.92
2018-07-06T17:19:59.944Z,6.36
2018-07-06T17:25:54.952Z,4.25
2018-07-06T17:31:49.991Z,6.06
2018-07-06T17:37:44.974Z,5.38
2018-07-06T17:43:40.009Z,5.91
2018-07-06T17:49:35.006Z,7.69
2018-07-06T17:55:29.986Z,6.74
2018-07-06T18:01:25.002Z,7.76
2018-07-06T18:07:20.022Z,6.49
2018-07-06T18:13:15.009Z,7.98
2018-07-06T18:19:10.062Z,5.26
2018-07-06T18:25:05.072Z,8.89
2018-07-06T18:31:00.070Z,8.03
2018-07-06T18:36:55.012Z,7.55
2018-07-06T18:42:50.015Z,7.63
2018-07-06T18:48:45.074Z,8.45
2018-07-06T18:54:40.100Z,9.68
2018-07-06T19:00:35.067Z,7.09
2018-07-06T19:06:30.063Z,10.16
2018-07-06T19:12:25.040Z,9.08
2018-07-06T19:18:20.039Z,8.1
2018-07-06T19:24:15.053Z,11.9
2018-07-06T19:30:10.146Z,11.16
2018-07-06T19:36:05.053Z,12.06
2018-07-06T19:42:00.115Z,9.51
2018-07-06T19:47:55.140Z,9.33
2018-07-06T19:53:50.093Z,8.87
2018-07-06T19:59:45.108Z,11.49
2018-07-06T20:05:40.080Z,9.16
2018-07-06T20:11:35.073Z,7.7
2018-07-06T20:17:30.111Z,9.27
2018-07-06T20:23:25.131Z,8.09
2018-07-06T20:29:20.092Z,10.8
2018-07-06T20:35:15.093Z,6.25
2018-07-06T20:41:10.154Z,8.27
2018-07-06T20:47:05.093Z,9.12
2018-07-06T20:53:00.108Z,11.27
2018-07-06T20:58:55.113Z,9.85
2018-07-06T21:04:50.169Z,7.67
2018-07-06T21:10:45.127Z,8.3
2018-07-06T21:16:40.200Z,13.27
2018-07-06T21:22:35.151Z,9.35
2018-07-06T21:28:30.180Z,9.88
2018-07-06T21:34:25.127Z,10.01
2018-07-06T21:40:20.171Z,13.03
2018-07-06T21:46:15.170Z,11.68
2018-07-06T21:52:10.152Z,13.33
2018-07-06T21:58:05.192Z,12.39
2018-07-06T22:04:00.170Z,11.86
2018-07-06T22:09:55.170Z,13.06
2018-07-06T22:15:50.172Z,12.2
2018-07-06T22:21:45.167Z,10.53
2018-07-06T22:27:40.179Z,14.63
2018-07-06T22:33:35.201Z,18.49
2018-07-06T22:39:30.280Z,13.72
2018-07-06T22:45:25.250Z,11.55
2018-07-06T22:51:20.194Z,12.59
2018-07-06T22:57:15.179Z,16.09
2018-07-06T23:03:10.217Z,14.41
2018-07-06T23:09:05.295Z,16.89
2018-07-06T23:15:00.264Z,13.53
2018-07-06T23:20:55.251Z,13.16
2018-07-06T23:26:50.265Z,19.77
2018-07-06T23:32:45.272Z,10.8
2018-07-06T23:38:40.230Z,12.83
2018-07-06T23:44:35.219Z,15.56
2018-07-06T23:50:30.275Z,12.88
2018-07-06T23:56:25.251Z,13.52
